Time;durP1;ratioP1;P1;durP2;ratioP2;P2;SDS_P1;SDS_P2;PMS_P1;PMS_P2;Temp;Humidity;BMP_temperature;BMP_pressure;BME280_temperature;BME280_humidity;BME280_pressure;Samples;Min_cycle;Max_cycle;Signal;HPM_P1;HPM_P2
2021/11/18 06:31:38;;;;;;;29.08;4.53;;;8.50;99.90;;;;;;6162471;23;20088;-80
2021/11/18 06:34:05;;;;;;;32.60;5.60;;;8.50;99.90;;;;;;6180603;23;20016;-80
2021/11/18 06:36:33;;;;;;;18.50;3.13;;;8.60;99.90;;;;;;6180444;23;20025;-79
2021/11/18 06:39:00;;;;;;;27.02;3.95;;;8.60;99.90;;;;;;6180581;23;20584;-81
2021/11/18 06:41:29;;;;;;;24.02;3.60;;;8.60;99.90;;;;;;6179505;23;20474;-80
2021/11/18 06:43:57;;;;;;;29.40;4.97;;;8.70;99.90;;;;;;6131446;23;20018;-82
2021/11/18 06:46:26;;;;;;;34.05;4.60;;;8.70;99.90;;;;;;6150684;23;20341;-80
2021/11/18 06:48:54;;;;;;;;;;;8.70;99.90;;;;;;6150647;23;20018;-81
2021/11/18 06:51:23;;;;;;;34.38;4.80;;;8.80;99.90;;;;;;6124502;23;20342;-80
2021/11/18 06:53:52;;;;;;;34.50;5.13;;;8.70;99.90;;;;;;6152058;23;20073;-82
2021/11/18 06:56:21;;;;;;;23.80;4.75;;;8.80;99.90;;;;;;6151095;23;20022;-82
2021/11/18 06:58:50;;;;;;;27.65;4.20;;;8.80;99.90;;;;;;6151418;23;20475;-80
2021/11/18 07:01:17;;;;;;;22.67;5.27;;;8.80;99.90;;;;;;6150516;23;20021;-80
2021/11/18 07:03:44;;;;;;;29.63;8.70;;;8.80;99.90;;;;;;6151296;23;20018;-81
2021/11/18 07:06:15;;;;;;;26.85;7.00;;;8.80;99.90;;;;;;6149040;23;20034;-81
2021/11/18 07:08:43;;;;;;;28.80;5.28;;;8.80;99.90;;;;;;6150357;23;20021;-81
2021/11/18 07:11:11;;;;;;;30.73;5.40;;;8.80;99.90;;;;;;6150587;23;20088;-81
2021/11/18 07:13:39;;;;;;;27.70;5.40;;;8.80;99.90;;;;;;6151583;23;20081;-80
2021/11/18 07:16:12;;;;;;;23.38;4.75;;;8.80;99.90;;;;;;6151130;23;20423;-80
2021/11/18 07:18:40;;;;;;;24.98;4.53;;;8.80;99.90;;;;;;6151433;23;20412;-80
2021/11/18 07:21:08;;;;;;;30.00;5.65;;;8.80;99.90;;;;;;6150465;23;20408;-80
2021/11/18 07:23:37;;;;;;;31.02;6.25;;;8.80;99.90;;;;;;6151253;23;20041;-81
2021/11/18 07:26:05;;;;;;;26.08;5.20;;;8.80;99.90;;;;;;6150794;23;20025;-81
2021/11/18 07:28:35;;;;;;;29.83;5.88;;;8.80;99.90;;;;;;6151332;23;20392;-81
2021/11/18 07:31:03;;;;;;;25.27;4.97;;;8.80;99.90;;;;;;6150321;23;20488;-80
2021/11/18 07:33:31;;;;;;;27.15;5.38;;;8.80;99.90;;;;;;6119723;23;20030;-81
2021/11/18 07:35:59;;;;;;;26.80;4.57;;;8.80;99.90;;;;;;6120800;23;20096;-80
2021/11/18 07:38:28;;;;;;;28.23;4.63;;;8.70;99.90;;;;;;6120133;23;20077;-81
2021/11/18 07:40:56;;;;;;;23.73;3.95;;;8.70;99.90;;;;;;6120224;23;20026;-81
2021/11/18 07:43:28;;;;;;;28.42;4.88;;;8.70;99.90;;;;;;6119559;23;20088;-81
2021/11/18 07:46:17;;;;;;;17.27;3.75;;;8.80;99.90;;;;;;6119884;23;20105;-81
2021/11/18 07:48:47;;;;;;;25.85;4.63;;;8.80;99.90;;;;;;6120592;23;20061;-81
2021/11/18 07:51:16;;;;;;;22.13;4.43;;;8.80;99.90;;;;;;6119383;23;20038;-79
2021/11/18 07:53:45;;;;;;;25.75;4.10;;;8.80;99.90;;;;;;6118995;23;20401;-81
2021/11/18 07:56:13;;;;;;;26.27;4.60;;;8.80;99.90;;;;;;6119943;23;20034;-80
2021/11/18 07:58:40;;;;;;;18.55;3.60;;;8.80;99.90;;;;;;6121198;23;20024;-81
2021/11/18 08:01:08;;;;;;;22.70;4.13;;;8.80;99.90;;;;;;6119814;23;20084;-80
2021/11/18 08:03:36;;;;;;;17.40;3.97;;;8.80;99.90;;;;;;6120020;23;20076;-81
2021/11/18 08:06:05;;;;;;;27.23;4.85;;;8.90;99.90;;;;;;6120492;23;20026;-80
2021/11/18 08:08:32;;;;;;;20.20;4.07;;;8.90;99.90;;;;;;6149566;23;20017;-81
2021/11/18 08:10:59;;;;;;;14.38;3.90;;;8.90;99.90;;;;;;6149712;23;20018;-81
2021/11/18 08:13:26;;;;;;;18.70;3.88;;;8.90;99.90;;;;;;6150566;23;20022;-81
2021/11/18 08:15:53;;;;;;;27.20;5.53;;;9.00;99.90;;;;;;6151494;23;20021;-80
2021/11/18 08:18:21;;;;;;;26.08;4.45;;;9.00;99.90;;;;;;6150908;23;20026;-80
2021/11/18 08:20:47;;;;;;;20.58;4.40;;;9.00;99.90;;;;;;6152089;23;20534;-81
2021/11/18 08:23:14;;;;;;;25.30;5.45;;;9.00;99.90;;;;;;6150947;23;20021;-80
2021/11/18 08:25:42;;;;;;;24.08;4.47;;;9.00;99.90;;;;;;6151916;23;20104;-80
2021/11/18 08:28:08;;;;;;;31.90;5.13;;;9.10;99.90;;;;;;6150918;23;20018;-80
2021/11/18 08:30:36;;;;;;;26.98;4.90;;;9.10;99.90;;;;;;6162160;23;20471;-81
2021/11/18 08:33:05;;;;;;;25.83;4.32;;;9.10;99.90;;;;;;6181513;23;20025;-80
2021/11/18 08:35:39;;;;;;;23.20;5.80;;;9.10;99.90;;;;;;6151187;23;20028;-81
2021/11/18 08:38:09;;;;;;;18.55;3.75;;;9.20;99.90;;;;;;6150708;23;20014;-80
2021/11/18 08:40:40;;;;;;;30.08;5.25;;;9.20;99.90;;;;;;6151666;23;20421;-80
2021/11/18 08:43:07;;;;;;;22.77;4.80;;;9.30;99.90;;;;;;6150906;23;20040;-81
2021/11/18 08:45:35;;;;;;;31.80;5.07;;;9.30;99.90;;;;;;6151469;23;20400;-80
2021/11/18 08:48:08;;;;;;;20.48;5.90;;;9.30;99.90;;;;;;6151212;23;20084;-80
2021/11/18 08:50:37;;;;;;;28.33;4.65;;;9.40;99.90;;;;;;6180519;23;20071;-80
2021/11/18 08:53:04;;;;;;;21.50;4.60;;;9.50;99.90;;;;;;6180534;23;20021;-80
2021/11/18 08:55:35;;;;;;;25.83;5.13;;;9.50;99.90;;;;;;6180608;23;20024;-80
2021/11/18 08:58:04;;;;;;;21.20;4.47;;;9.60;99.90;;;;;;6181235;23;20021;-80
2021/11/18 09:00:37;;;;;;;25.67;4.43;;;9.60;99.90;;;;;;6150788;23;20029;-81
2021/11/18 09:03:04;;;;;;;29.73;5.18;;;9.70;99.90;;;;;;6150588;23;20405;-80
2021/11/18 09:05:31;;;;;;;23.10;4.07;;;9.70;99.90;;;;;;6150865;23;20021;-80
2021/11/18 09:08:00;;;;;;;26.05;4.55;;;9.80;99.90;;;;;;6151329;23;20550;-81
2021/11/18 09:10:28;;;;;;;17.63;3.35;;;9.80;99.90;;;;;;6150523;23;20036;-80
2021/11/18 09:12:55;;;;;;;31.65;5.13;;;9.80;99.90;;;;;;6150882;23;20014;-80
2021/11/18 09:15:25;;;;;;;26.17;5.20;;;9.90;99.90;;;;;;6150174;23;20029;-81
2021/11/18 09:17:54;;;;;;;32.75;5.85;;;10.00;99.90;;;;;;6151297;23;20022;-80
2021/11/18 09:20:22;;;;;;;25.02;5.07;;;10.00;99.90;;;;;;6150389;23;20480;-80
2021/11/18 09:22:57;;;;;;;21.25;5.38;;;10.10;99.90;;;;;;6151039;23;20025;-80
2021/11/18 09:25:28;;;;;;;15.73;4.15;;;10.10;99.90;;;;;;6150269;23;20432;-80
2021/11/18 09:27:56;;;;;;;24.35;6.07;;;10.20;99.90;;;;;;6150776;23;20017;-80
2021/11/18 09:30:31;;;;;;;21.10;5.03;;;10.30;99.90;;;;;;6150340;23;20022;-81
2021/11/18 09:32:59;;;;;;;22.95;5.20;;;10.30;99.90;;;;;;6150915;23;20025;-81
2021/11/18 09:35:30;;;;;;;23.53;5.10;;;10.40;99.90;;;;;;6149916;23;20464;-81
2021/11/18 09:37:58;;;;;;;22.35;5.13;;;10.50;99.90;;;;;;6151570;23;20022;-80
2021/11/18 09:40:58;;;;;;;25.10;5.65;;;10.50;99.90;;;;;;6124100;23;20357;-80
2021/11/18 09:43:43;;;;;;;22.75;5.47;;;10.60;99.90;;;;;;6150042;23;20052;-79
2021/11/18 09:46:34;;;;;;;25.27;5.75;;;10.60;99.90;;;;;;6124043;23;20017;-79
2021/11/18 09:49:29;;;;;;;22.80;5.50;;;10.70;99.90;;;;;;6150764;23;20025;-80
2021/11/18 09:52:15;;;;;;;20.75;3.88;;;10.80;99.90;;;;;;6150361;23;20021;-80
2021/11/18 09:54:49;;;;;;;24.25;4.50;;;10.90;99.90;;;;;;6150312;23;20021;-80
2021/11/18 09:57:19;;;;;;;15.82;3.35;;;11.00;99.90;;;;;;6150055;23;20057;-79
2021/11/18 10:00:10;;;;;;;16.98;4.30;;;11.10;99.90;;;;;;6150488;23;20372;-79
2021/11/18 10:02:43;;;;;;;23.75;3.67;;;11.20;99.90;;;;;;6150702;23;20522;-80
2021/11/18 10:05:20;;;;;;;21.95;4.82;;;11.30;99.90;;;;;;6149824;23;20025;-79
2021/11/18 10:07:56;;;;;;;15.90;3.38;;;11.30;99.90;;;;;;6150825;23;20025;-80
2021/11/18 10:10:26;;;;;;;22.02;4.35;;;11.40;99.90;;;;;;6149594;23;20025;-80
2021/11/18 10:13:12;;;;;;;15.15;3.42;;;11.50;99.90;;;;;;6124891;23;20077;-80
2021/11/18 10:16:40;;;;;;;14.70;3.28;;;11.50;99.90;;;;;;6150414;23;20022;-80
2021/11/18 10:19:09;;;;;;;19.25;5.30;;;11.60;99.90;;;;;;5973888;23;20029;-79
2021/11/18 10:21:43;;;;;;;12.68;4.13;;;11.60;99.90;;;;;;5974808;23;20068;-80
2021/11/18 10:24:19;;;;;;;24.55;5.30;;;11.70;99.90;;;;;;5974222;23;20095;-80
2021/11/18 10:26:51;;;;;;;13.32;4.25;;;11.80;99.90;;;;;;5974860;23;20091;-80
2021/11/18 10:29:30;;;;;;;13.38;4.40;;;11.80;99.90;;;;;;5974259;23;20483;-80
2021/11/18 10:32:00;;;;;;;27.10;5.28;;;11.80;99.90;;;;;;5974691;23;20020;-80
2021/11/18 10:34:51;;;;;;;13.05;3.85;;;11.90;99.90;;;;;;5974274;24;20024;-79
2021/11/18 10:37:44;;;;;;;15.55;3.70;;;11.90;99.90;;;;;;5974091;24;20028;-80
2021/11/18 10:40:19;;;;;;;9.80;2.80;;;11.90;99.90;;;;;;5973851;24;20024;-80
2021/11/18 10:43:15;;;;;;;30.27;4.60;;;12.00;99.90;;;;;;5975093;24;20025;-80
2021/11/18 10:45:44;;;;;;;12.57;2.80;;;12.00;99.90;;;;;;5974496;24;20020;-80
2021/11/18 10:48:28;;;;;;;10.27;2.63;;;12.10;99.90;;;;;;5974206;24;20042;-79
2021/11/18 10:51:02;;;;;;;18.13;3.47;;;12.10;99.90;;;;;;5974512;24;20020;-80
2021/11/18 10:53:57;;;;;;;15.05;2.58;;;12.20;99.90;;;;;;6008678;23;20075;-80
2021/11/18 10:56:29;;;;;;;16.38;2.55;;;12.20;99.90;;;;;;6122355;23;20032;-80
2021/11/18 10:59:07;;;;;;;20.88;3.38;;;12.30;99.90;;;;;;6120417;23;20509;-80
2021/11/18 11:01:43;;;;;;;15.00;2.88;;;12.30;99.90;;;;;;6120663;23;20014;-80
2021/11/18 11:04:32;;;;;;;13.13;2.47;;;12.40;99.90;;;;;;6094321;23;20038;-81
2021/11/18 11:06:59;;;;;;;15.77;2.60;;;12.40;99.90;;;;;;6120675;23;20018;-80
2021/11/18 11:09:36;;;;;;;9.77;2.47;;;12.40;99.90;;;;;;6119640;23;20018;-80
2021/11/18 11:12:16;;;;;;;11.48;3.05;;;12.50;99.90;;;;;;6120222;23;20022;-80
2021/11/18 11:14:52;;;;;;;11.02;2.55;;;12.50;99.90;;;;;;6120893;23;20018;-79
2021/11/18 11:17:43;;;;;;;11.75;3.10;;;12.60;99.90;;;;;;6094379;23;20025;-80
2021/11/18 11:20:15;;;;;;;11.10;2.95;;;12.60;99.90;;;;;;6119788;23;20018;-80
2021/11/18 11:23:23;;;;;;;12.07;2.60;;;12.60;99.90;;;;;;6120586;23;20018;-80
2021/11/18 11:26:22;;;;;;;11.95;2.60;;;12.70;99.90;;;;;;6120286;23;20323;-80
2021/11/18 11:29:08;;;;;;;15.07;2.67;;;12.70;99.90;;;;;;6119974;23;20018;-80
2021/11/18 11:31:47;;;;;;;13.02;2.40;;;12.70;99.90;;;;;;6143070;23;20017;-80
2021/11/18 11:34:43;;;;;;;10.52;2.38;;;12.70;99.90;;;;;;6123824;23;20018;-79
2021/11/18 11:37:33;;;;;;;13.18;2.83;;;12.80;99.90;;;;;;6120358;23;20017;-80
2021/11/18 11:40:05;;;;;;;9.43;2.35;;;12.80;99.90;;;;;;6024930;23;20023;-80
2021/11/18 11:42:43;;;;;;;8.48;2.10;;;12.80;99.90;;;;;;6030352;23;20490;-80
2021/11/18 11:45:10;;;;;;;12.63;2.30;;;12.80;99.90;;;;;;6030235;23;20031;-80
2021/11/18 11:47:49;;;;;;;11.68;2.75;;;12.80;99.90;;;;;;6032801;23;20442;-80
2021/11/18 11:50:34;;;;;;;;;;;12.90;99.90;;;;;;6032377;23;20114;-80
2021/11/18 11:53:29;;;;;;;18.92;3.53;;;12.90;99.90;;;;;;6033017;23;19969;-80
2021/11/18 11:56:07;;;;;;;9.80;2.50;;;12.90;99.90;;;;;;6060909;23;20450;-79
2021/11/18 11:58:36;;;;;;;12.98;3.00;;;13.00;99.90;;;;;;6061259;23;20015;-80
2021/11/18 12:01:36;;;;;;;15.27;2.47;;;13.00;99.90;;;;;;6061922;23;20019;-80
2021/11/18 12:04:24;;;;;;;12.10;3.10;;;13.00;99.90;;;;;;6060645;23;20190;-80
2021/11/18 12:07:08;;;;;;;13.23;3.00;;;13.10;99.90;;;;;;6060920;23;20450;-80
2021/11/18 12:09:35;;;;;;;13.57;2.72;;;13.10;99.90;;;;;;6060947;23;20085;-80
2021/11/18 12:12:26;;;;;;;10.13;2.75;;;13.10;99.90;;;;;;6037320;23;20052;-80
2021/11/18 12:14:53;;;;;;;12.93;2.90;;;13.10;99.90;;;;;;6038370;23;20015;-80
2021/11/18 12:17:27;;;;;;;14.13;2.65;;;13.10;99.90;;;;;;6113846;23;20025;-79
2021/11/18 12:20:17;;;;;;;13.00;2.45;;;13.20;99.90;;;;;;6151579;23;20021;-80
2021/11/18 12:22:44;;;;;;;8.95;2.35;;;13.20;99.90;;;;;;6151579;23;20018;-80
2021/11/18 12:25:16;;;;;;;11.50;2.25;;;13.20;99.90;;;;;;6150842;23;20423;-80
2021/11/18 12:27:49;;;;;;;11.90;2.70;;;13.20;99.90;;;;;;6151787;23;20029;-80
2021/11/18 12:30:52;;;;;;;13.00;2.40;;;13.20;99.90;;;;;;6127305;23;20026;-80
2021/11/18 12:33:19;;;;;;;11.20;2.60;;;13.20;99.90;;;;;;6150723;23;20092;-80
2021/11/18 12:36:07;;;;;;;11.93;2.63;;;13.30;99.90;;;;;;6151962;23;20021;-80
2021/11/18 12:38:36;;;;;;;11.20;2.25;;;13.30;99.90;;;;;;6125252;23;20020;-80
2021/11/18 12:41:25;;;;;;;11.48;2.70;;;13.30;99.90;;;;;;6150656;23;20064;-80
2021/11/18 12:44:12;;;;;;;9.52;2.70;;;13.40;99.90;;;;;;6150814;23;20080;-80
2021/11/18 12:47:15;;;;;;;9.50;2.97;;;13.40;99.90;;;;;;6151173;23;20040;-80
2021/11/18 12:49:50;;;;;;;9.98;2.33;;;13.40;99.90;;;;;;6151560;23;20068;-80
2021/11/18 12:52:17;;;;;;;9.07;2.00;;;13.40;99.90;;;;;;6151417;23;20554;-80
2021/11/18 12:54:47;;;;;;;11.68;2.42;;;13.40;99.90;;;;;;6150932;23;20013;-80
2021/11/18 12:57:46;;;;;;;13.88;2.60;;;13.40;99.90;;;;;;6150523;23;20025;-80
2021/11/18 13:00:13;;;;;;;11.35;2.47;;;13.40;99.90;;;;;;6150226;23;20080;-80
2021/11/18 13:02:42;;;;;;;11.98;2.17;;;13.40;99.90;;;;;;6150959;23;20072;-81
2021/11/18 13:05:09;;;;;;;;;;;13.40;99.90;;;;;;6151490;23;20601;-80
2021/11/18 13:07:51;;;;;;;11.85;2.58;;;13.40;99.90;;;;;;6151149;23;19920;-80
2021/11/18 13:10:38;;;;;;;7.70;2.03;;;13.40;99.90;;;;;;6150973;23;20029;-80
2021/11/18 13:13:05;;;;;;;14.02;2.10;;;13.30;99.90;;;;;;6150843;23;20017;-79
2021/11/18 13:15:43;;;;;;;8.65;2.15;;;13.30;99.90;;;;;;6151371;23;20022;-80
2021/11/18 13:18:28;;;;;;;9.55;2.10;;;13.30;99.90;;;;;;6148897;23;20018;-79
2021/11/18 13:21:41;;;;;;;11.68;2.60;;;13.20;99.90;;;;;;6150664;23;20654;-80
2021/11/18 13:24:50;;;;;;;11.15;2.72;;;13.20;99.90;;;;;;6127778;23;20037;-80
2021/11/18 13:27:50;;;;;;;11.38;2.25;;;13.10;99.90;;;;;;6149867;23;20018;-79
2021/11/18 13:30:30;;;;;;;9.55;2.10;;;13.10;99.90;;;;;;6105422;23;20354;-80
2021/11/18 13:33:24;;;;;;;8.82;2.00;;;13.20;99.90;;;;;;6150727;23;20084;-79
2021/11/18 13:36:00;;;;;;;8.95;2.45;;;13.20;99.90;;;;;;6150498;23;20041;-81
2021/11/18 13:38:31;;;;;;;10.00;2.08;;;13.20;99.90;;;;;;6149878;23;20089;-80
2021/11/18 13:41:06;;;;;;;12.63;2.47;;;13.20;99.90;;;;;;6150563;23;20018;-80
2021/11/18 13:43:54;;;;;;;8.10;2.50;;;13.30;99.90;;;;;;6149981;23;20045;-80
2021/11/18 13:46:26;;;;;;;9.30;2.47;;;13.20;99.90;;;;;;6124559;23;20076;-80
2021/11/18 13:49:11;;;;;;;15.60;2.40;;;13.20;99.90;;;;;;6150414;23;20017;-80
2021/11/18 13:51:47;;;;;;;11.68;2.33;;;13.20;99.90;;;;;;6150174;23;20022;-80
2021/11/18 13:54:22;;;;;;;16.20;2.40;;;13.20;99.90;;;;;;6149680;23;20423;-80
2021/11/18 13:56:59;;;;;;;9.88;2.17;;;13.30;99.90;;;;;;6124800;23;20018;-79
2021/11/18 13:59:48;;;;;;;9.80;2.28;;;13.30;99.90;;;;;;6124174;23;20090;-80
2021/11/18 14:02:18;;;;;;;12.32;2.38;;;13.30;99.90;;;;;;6150048;23;20022;-80
2021/11/18 14:04:58;;;;;;;12.93;2.10;;;13.40;99.90;;;;;;6150882;23;20017;-80
2021/11/18 14:07:26;;;;;;;7.95;2.15;;;13.40;99.90;;;;;;6149435;23;20072;-80
2021/11/18 14:09:59;;;;;;;10.30;2.17;;;13.40;99.90;;;;;;6150337;23;20025;-80
2021/11/18 14:12:31;;;;;;;10.50;2.42;;;13.40;99.90;;;;;;6150227;23;20025;-80
2021/11/18 14:15:19;;;;;;;8.38;2.05;;;13.40;99.90;;;;;;6150850;23;20029;-79
2021/11/18 14:18:14;;;;;;;12.68;2.42;;;13.40;99.90;;;;;;6150316;23;20072;-80
2021/11/18 14:21:04;;;;;;;15.38;2.90;;;13.40;99.90;;;;;;6139122;23;20068;-79
2021/11/18 14:23:35;;;;;;;12.50;2.47;;;13.30;99.90;;;;;;6150216;23;20360;-80
2021/11/18 14:26:07;;;;;;;15.43;2.40;;;13.30;99.90;;;;;;6150532;23;20072;-78
2021/11/18 14:28:52;;;;;;;14.38;2.60;;;13.40;99.90;;;;;;6179822;23;20017;-80
2021/11/18 14:31:41;;;;;;;10.13;2.75;;;13.40;99.90;;;;;;6179481;23;20031;-80
2021/11/18 14:34:08;;;;;;;11.63;2.33;;;13.40;99.90;;;;;;6179573;23;20024;-80
2021/11/18 14:36:38;;;;;;;12.38;2.78;;;13.40;99.90;;;;;;6179671;23;20017;-81
2021/11/18 14:39:27;;;;;;;14.57;2.65;;;13.30;99.90;;;;;;6179512;23;20385;-79
2021/11/18 14:42:04;;;;;;;12.68;2.67;;;13.30;99.90;;;;;;6179809;23;20017;-80
2021/11/18 14:45:01;;;;;;;10.25;2.30;;;13.30;99.90;;;;;;6149939;23;20017;-80
2021/11/18 14:47:34;;;;;;;10.65;2.33;;;13.30;99.90;;;;;;6149084;23;20076;-80
2021/11/18 14:50:07;;;;;;;15.07;2.63;;;13.20;99.90;;;;;;6150037;23;20021;-80
2021/11/18 14:52:42;;;;;;;10.38;2.42;;;13.20;99.90;;;;;;6149539;23;20076;-80
2021/11/18 14:55:57;;;;;;;8.45;2.45;;;13.20;99.90;;;;;;6149664;23;20072;-80
2021/11/18 14:58:24;;;;;;;13.55;2.70;;;13.20;99.90;;;;;;6003397;23;20096;-80
2021/11/18 15:00:55;;;;;;;13.65;2.50;;;13.20;99.90;;;;;;6002372;23;20019;-79
2021/11/18 15:03:26;;;;;;;11.13;2.30;;;13.10;99.90;;;;;;6001957;23;20030;-79
2021/11/18 15:05:54;;;;;;;11.95;2.50;;;13.10;99.90;;;;;;6002172;23;20027;-80
2021/11/18 15:08:22;;;;;;;16.65;2.90;;;13.10;99.90;;;;;;6002259;23;20349;-79
2021/11/18 15:10:50;;;;;;;9.52;2.40;;;13.10;99.90;;;;;;6002539;23;20463;-80
2021/11/18 15:13:17;;;;;;;13.25;3.13;;;13.10;99.90;;;;;;6001835;23;20092;-80
2021/11/18 15:15:44;;;;;;;11.27;2.58;;;13.10;99.90;;;;;;6003081;23;20031;-81
2021/11/18 15:18:12;;;;;;;15.63;2.85;;;13.00;99.90;;;;;;6001841;23;20134;-80
2021/11/18 15:20:44;;;;;;;12.68;3.05;;;13.00;99.90;;;;;;6001534;23;20016;-80
2021/11/18 15:23:12;;;;;;;12.65;2.53;;;13.00;99.90;;;;;;6001954;23;20090;-80
2021/11/18 15:25:40;;;;;;;12.70;2.55;;;12.90;99.90;;;;;;6002758;23;20034;-79
2021/11/18 15:28:09;;;;;;;15.50;3.07;;;12.90;99.90;;;;;;6018201;23;20474;-79
2021/11/18 15:30:45;;;;;;;15.43;2.88;;;12.90;99.90;;;;;;6149934;23;20365;-80
2021/11/18 15:33:16;;;;;;;16.17;3.30;;;12.90;99.90;;;;;;6148811;23;20025;-80
2021/11/18 15:35:43;;;;;;;10.32;2.45;;;12.80;99.90;;;;;;6149973;23;20266;-80
2021/11/18 15:38:31;;;;;;;12.73;2.88;;;12.80;99.90;;;;;;6150214;23;20032;-79
2021/11/18 15:41:01;;;;;;;16.15;2.95;;;12.70;99.90;;;;;;6148398;23;20057;-80
2021/11/18 15:43:30;;;;;;;14.55;3.00;;;12.70;99.90;;;;;;6149271;23;20026;-79
2021/11/18 15:45:56;;;;;;;;;;;12.70;99.90;;;;;;6150552;23;20026;-80
2021/11/18 15:48:24;;;;;;;14.80;2.97;;;12.70;99.90;;;;;;6149116;23;20366;-80
2021/11/18 15:50:55;;;;;;;11.90;2.60;;;12.60;99.90;;;;;;6149936;23;20088;-80
2021/11/18 15:53:26;;;;;;;10.73;2.40;;;12.60;99.90;;;;;;6149191;23;20487;-81
2021/11/18 15:56:04;;;;;;;11.18;2.50;;;12.50;99.90;;;;;;6150384;23;20022;-80
2021/11/18 15:58:31;;;;;;;13.50;2.92;;;12.50;99.90;;;;;;6149661;23;20480;-79
2021/11/18 16:01:14;;;;;;;11.10;2.72;;;12.50;99.90;;;;;;6149613;23;20017;-80
2021/11/18 16:03:43;;;;;;;13.30;2.88;;;12.40;99.90;;;;;;6179001;23;20088;-80
2021/11/18 16:06:10;;;;;;;;;;;12.40;99.90;;;;;;6179897;23;20022;-80
2021/11/18 16:08:38;;;;;;;19.90;3.17;;;12.30;99.90;;;;;;6178916;23;19916;-80
2021/11/18 16:11:17;;;;;;;12.30;2.78;;;12.30;99.90;;;;;;6178982;23;20506;-79
2021/11/18 16:13:49;;;;;;;22.20;3.97;;;12.30;99.90;;;;;;6179710;23;20091;-80
2021/11/18 16:16:18;;;;;;;14.30;2.95;;;12.20;99.90;;;;;;6152091;23;20427;-79
2021/11/18 16:18:49;;;;;;;11.40;2.75;;;12.20;99.90;;;;;;6153458;23;20029;-80
2021/11/18 16:21:19;;;;;;;16.95;3.88;;;12.10;99.90;;;;;;6178551;23;20399;-80
2021/11/18 16:23:46;;;;;;;16.38;2.70;;;12.10;99.90;;;;;;6179674;23;20079;-80
2021/11/18 16:26:16;;;;;;;19.65;3.33;;;12.00;99.90;;;;;;6178788;23;20087;-80
2021/11/18 16:28:47;;;;;;;12.95;2.95;;;12.00;99.90;;;;;;6179395;23;20534;-80
2021/11/18 16:31:19;;;;;;;20.65;3.30;;;11.90;99.90;;;;;;6178233;23;20032;-80
2021/11/18 16:33:46;;;;;;;18.55;3.50;;;11.90;99.90;;;;;;6180147;23;20021;-80
2021/11/18 16:36:13;;;;;;;15.98;3.42;;;11.80;99.90;;;;;;6180407;23;20088;-80
2021/11/18 16:38:42;;;;;;;13.82;2.63;;;11.80;99.90;;;;;;6181195;23;20021;-80
2021/11/18 16:41:21;;;;;;;17.77;3.10;;;11.70;99.90;;;;;;6180740;23;20492;-80
2021/11/18 16:43:48;;;;;;;;;;;11.70;99.90;;;;;;6181621;23;20017;-80
2021/11/18 16:46:15;;;;;;;25.83;3.95;;;11.60;99.90;;;;;;6179965;23;19916;-80
2021/11/18 16:48:44;;;;;;;15.88;3.40;;;11.50;99.90;;;;;;6180961;23;20047;-79
2021/11/18 16:51:16;;;;;;;27.98;8.30;;;11.40;99.90;;;;;;6180312;23;20848;-79
2021/11/18 16:53:44;;;;;;;14.98;3.00;;;11.30;99.90;;;;;;6180932;23;20499;-80
2021/11/18 16:56:12;;;;;;;19.77;4.05;;;11.30;99.90;;;;;;6153910;23;20403;-80
2021/11/18 16:58:43;;;;;;;15.73;3.63;;;11.20;99.90;;;;;;6181129;23;20025;-80
2021/11/18 17:01:18;;;;;;;16.60;3.80;;;11.10;99.90;;;;;;6180051;23;20032;-80
2021/11/18 17:03:47;;;;;;;16.45;3.05;;;11.00;99.90;;;;;;6154881;23;20071;-79
2021/11/18 17:06:15;;;;;;;11.35;3.25;;;10.90;99.90;;;;;;6180072;23;20025;-80
2021/11/18 17:08:45;;;;;;;11.98;2.75;;;10.90;99.90;;;;;;6154321;23;20447;-80
2021/11/18 17:11:16;;;;;;;18.35;3.75;;;10.80;99.90;;;;;;6178567;23;20079;-78
2021/11/18 17:13:43;;;;;;;16.52;3.60;;;10.80;99.90;;;;;;6155238;23;20033;-78
2021/11/18 17:16:15;;;;;;;22.73;5.18;;;10.80;99.90;;;;;;6153548;23;20017;-78
2021/11/18 17:18:43;;;;;;;22.80;4.40;;;10.70;99.90;;;;;;6181120;23;20017;-78
2021/11/18 17:21:15;;;;;;;16.67;3.83;;;10.70;99.90;;;;;;6179705;23;20117;-79
2021/11/18 17:23:42;;;;;;;25.80;4.05;;;10.50;99.90;;;;;;6180179;23;20092;-79
2021/11/18 17:26:11;;;;;;;19.10;3.63;;;10.50;99.90;;;;;;6178321;23;20029;-80
2021/11/18 17:28:39;;;;;;;;;;;10.50;99.90;;;;;;6179085;23;20306;-80
2021/11/18 17:31:09;;;;;;;20.00;6.53;;;10.50;99.90;;;;;;6137261;23;19939;-79
2021/11/18 17:33:37;;;;;;;17.00;4.45;;;10.30;99.90;;;;;;6123648;23;20025;-78
2021/11/18 17:36:14;;;;;;;18.33;3.73;;;10.30;99.90;;;;;;6149789;23;20017;-80
2021/11/18 17:38:44;;;;;;;15.90;3.88;;;10.20;99.90;;;;;;6150939;23;20056;-80
2021/11/18 17:41:14;;;;;;;17.42;4.30;;;10.10;99.90;;;;;;6149161;23;20025;-78
2021/11/18 17:43:43;;;;;;;19.38;4.40;;;10.10;99.90;;;;;;6149861;23;20025;-80
2021/11/18 17:46:19;;;;;;;26.40;4.93;;;10.10;99.90;;;;;;6149264;23;20017;-80
2021/11/18 17:48:47;;;;;;;23.77;5.03;;;10.00;99.90;;;;;;6150178;23;20104;-80
2021/11/18 17:51:18;;;;;;;20.92;5.55;;;9.90;99.90;;;;;;6149343;23;20025;-80
2021/11/18 17:53:48;;;;;;;19.85;5.47;;;9.90;99.90;;;;;;6150320;23;20025;-80
2021/11/18 17:56:16;;;;;;;30.85;11.15;;;9.90;99.90;;;;;;6149849;23;20025;-78
2021/11/18 17:58:44;;;;;;;19.03;6.90;;;9.80;99.90;;;;;;6150053;23;20068;-79
2021/11/18 18:01:22;;;;;;;29.63;6.93;;;9.90;99.90;;;;;;6123511;23;20033;-79
2021/11/18 18:03:49;;;;;;;32.25;9.20;;;9.80;99.90;;;;;;6149731;23;20025;-79
2021/11/18 18:06:20;;;;;;;26.08;8.43;;;9.80;99.90;;;;;;6149983;23;20017;-78
2021/11/18 18:08:48;;;;;;;28.92;10.80;;;9.70;99.90;;;;;;6150654;23;20017;-80
2021/11/18 18:11:20;;;;;;;26.50;8.38;;;9.70;99.90;;;;;;6149551;23;20433;-80
2021/11/18 18:13:47;;;;;;;26.55;6.60;;;9.70;99.90;;;;;;6149563;23;20124;-77
2021/11/18 18:16:20;;;;;;;18.05;6.20;;;9.70;99.90;;;;;;6150055;23;20045;-80
2021/11/18 18:18:47;;;;;;;23.27;6.90;;;9.70;99.90;;;;;;6150207;23;20024;-81
2021/11/18 18:21:15;;;;;;;26.90;5.78;;;9.60;99.90;;;;;;6148774;23;20025;-80
2021/11/18 18:23:46;;;;;;;24.10;6.65;;;9.60;99.90;;;;;;6149849;23;20108;-80
2021/11/18 18:26:27;;;;;;;20.90;6.15;;;9.60;99.90;;;;;;6149246;23;20400;-80
2021/11/18 18:28:54;;;;;;;21.85;7.05;;;9.60;99.90;;;;;;6117068;23;20022;-80
2021/11/18 18:31:30;;;;;;;25.48;7.53;;;9.50;99.90;;;;;;6160595;23;20056;-80
2021/11/18 18:33:58;;;;;;;27.98;8.02;;;9.60;99.90;;;;;;6174647;23;20541;-79
2021/11/18 18:36:29;;;;;;;26.90;6.00;;;9.60;99.90;;;;;;6145409;23;20070;-78
2021/11/18 18:38:58;;;;;;;25.23;7.75;;;9.50;99.90;;;;;;6173135;23;20075;-80
2021/11/18 18:41:27;;;;;;;25.70;7.75;;;9.50;99.90;;;;;;6174027;23;20056;-80
2021/11/18 18:43:57;;;;;;;18.42;6.13;;;9.50;99.90;;;;;;6148730;23;20024;-80
2021/11/18 18:46:28;;;;;;;20.13;5.07;;;9.40;99.90;;;;;;6173843;23;20025;-79
2021/11/18 18:48:55;;;;;;;14.88;4.38;;;9.40;99.90;;;;;;6174185;23;20017;-79
2021/11/18 18:51:28;;;;;;;17.70;4.45;;;9.30;99.90;;;;;;6173455;23;20099;-79
2021/11/18 18:53:55;;;;;;;15.15;3.83;;;9.30;99.90;;;;;;6174853;23;20678;-80
2021/11/18 18:56:24;;;;;;;17.38;4.45;;;9.20;99.90;;;;;;6173611;23;20025;-79
2021/11/18 18:58:51;;;;;;;41.15;15.13;;;9.20;99.90;;;;;;6149101;23;20048;-79
2021/11/18 19:01:26;;;;;;;28.50;9.50;;;9.10;99.90;;;;;;6173755;23;20025;-79
2021/11/18 19:03:53;;;;;;;29.98;10.55;;;9.10;99.90;;;;;;6149051;23;20247;-78
2021/11/18 19:06:22;;;;;;;15.60;4.25;;;9.00;99.90;;;;;;6174142;23;20025;-79
2021/11/18 19:08:51;;;;;;;16.75;6.13;;;9.00;99.90;;;;;;6174830;23;20100;-79
2021/11/18 19:11:21;;;;;;;16.50;3.85;;;8.90;99.90;;;;;;6173856;23;20044;-80
2021/11/18 19:13:48;;;;;;;25.43;5.67;;;8.90;99.90;;;;;;6149225;23;20032;-80
2021/11/18 19:16:19;;;;;;;20.90;4.65;;;8.80;99.90;;;;;;6173633;23;20260;-79
2021/11/18 19:18:46;;;;;;;31.17;8.40;;;8.80;99.90;;;;;;6174914;23;20036;-79
2021/11/18 19:21:14;;;;;;;19.48;4.70;;;8.70;99.90;;;;;;6173024;23;20021;-79
2021/11/18 19:23:42;;;;;;;;;;;8.70;99.90;;;;;;6149072;23;20055;-79
2021/11/18 19:26:34;;;;;;;25.73;5.15;;;8.70;99.90;;;;;;6172617;23;19920;-79
2021/11/18 19:29:21;;;;;;;25.17;5.07;;;8.70;99.90;;;;;;6174311;23;20021;-80
2021/11/18 19:32:10;;;;;;;26.10;5.22;;;8.70;99.90;;;;;;6117697;23;20424;-79
2021/11/18 19:34:45;;;;;;;25.77;5.75;;;8.70;99.90;;;;;;6144533;23;20021;-79
2021/11/18 19:37:16;;;;;;;17.50;5.05;;;8.60;99.90;;;;;;6143392;23;20033;-80
2021/11/18 19:39:45;;;;;;;28.58;5.60;;;8.60;99.90;;;;;;6144371;23;20072;-80
2021/11/18 19:42:14;;;;;;;15.52;3.88;;;8.60;99.90;;;;;;6144415;23;20029;-79
2021/11/18 19:44:41;;;;;;;27.65;4.75;;;8.60;99.90;;;;;;6145273;23;20018;-79
2021/11/18 19:47:12;;;;;;;26.05;5.35;;;8.60;99.90;;;;;;6144964;23;20610;-79
2021/11/18 19:49:40;;;;;;;22.00;4.18;;;8.50;99.90;;;;;;6143438;23;20535;-78